sensor_id;sensor_type;location;lat;lon;timestamp;pressure;altitude;pressure_sealevel;temperature;humidity
2268;BME280;11052;43.338;25.502;2022-09-09T00:01:20;100497.78;;;21.21;84.71
2268;BME280;11052;43.338;25.502;2022-09-09T00:03:54;100500.72;;;21.30;84.44
2268;BME280;11052;43.338;25.502;2022-09-09T00:06:28;100508.09;;;21.37;82.48
2268;BME280;11052;43.338;25.502;2022-09-09T00:09:04;100509.81;;;21.25;84.57
2268;BME280;11052;43.338;25.502;2022-09-09T00:11:39;100508.03;;;21.26;85.63
2268;BME280;11052;43.338;25.502;2022-09-09T00:14:14;100515.69;;;21.16;85.63
2268;BME280;11052;43.338;25.502;2022-09-09T00:16:49;100512.34;;;21.14;88.82
2268;BME280;11052;43.338;25.502;2022-09-09T00:19:23;100525.09;;;21.08;90.82
2268;BME280;11052;43.338;25.502;2022-09-09T00:22:00;100522.25;;;20.98;91.98
2268;BME280;11052;43.338;25.502;2022-09-09T00:24:38;100515.81;;;21.02;91.52
2268;BME280;11052;43.338;25.502;2022-09-09T00:27:16;100516.78;;;21.01;90.21
2268;BME280;11052;43.338;25.502;2022-09-09T00:29:52;100505.19;;;21.04;95.42
2268;BME280;11052;43.338;25.502;2022-09-09T00:32:21;100514.88;;;20.90;97.31
2268;BME280;11052;43.338;25.502;2022-09-09T00:34:51;100512.47;;;20.87;98.72
2268;BME280;11052;43.338;25.502;2022-09-09T00:37:20;100507.53;;;20.70;100.00
2268;BME280;11052;43.338;25.502;2022-09-09T00:39:49;100501.44;;;20.70;100.00
2268;BME280;11052;43.338;25.502;2022-09-09T00:42:24;100507.22;;;20.75;99.30
2268;BME280;11052;43.338;25.502;2022-09-09T00:45:01;100501.28;;;20.84;97.61
2268;BME280;11052;43.338;25.502;2022-09-09T00:47:44;100496.63;;;21.00;93.00
2268;BME280;11052;43.338;25.502;2022-09-09T00:50:29;100496.22;;;21.06;92.42
2268;BME280;11052;43.338;25.502;2022-09-09T00:53:10;100499.78;;;21.18;90.69
2268;BME280;11052;43.338;25.502;2022-09-09T00:55:47;100497.13;;;21.18;90.42
2268;BME280;11052;43.338;25.502;2022-09-09T00:58:15;100495.78;;;21.12;89.84
2268;BME280;11052;43.338;25.502;2022-09-09T01:00:45;100488.31;;;21.06;90.85
2268;BME280;11052;43.338;25.502;2022-09-09T01:03:30;100481.25;;;21.07;90.99
2268;BME280;11052;43.338;25.502;2022-09-09T01:06:02;100479.66;;;21.04;91.04
2268;BME280;11052;43.338;25.502;2022-09-09T01:08:43;100493.78;;;21.03;91.70
2268;BME280;11052;43.338;25.502;2022-09-09T01:11:20;100496.44;;;21.03;90.49
2268;BME280;11052;43.338;25.502;2022-09-09T01:13:53;100497.59;;;20.99;90.49
2268;BME280;11052;43.338;25.502;2022-09-09T01:16:26;100493.06;;;21.01;94.89
2268;BME280;11052;43.338;25.502;2022-09-09T01:18:54;100495.38;;;20.93;95.36
2268;BME280;11052;43.338;25.502;2022-09-09T01:21:28;100501.09;;;20.87;97.37
2268;BME280;11052;43.338;25.502;2022-09-09T01:24:15;100490.84;;;20.82;99.25
2268;BME280;11052;43.338;25.502;2022-09-09T01:26:48;100498.47;;;20.74;100.00
2268;BME280;11052;43.338;25.502;2022-09-09T01:29:18;100500.06;;;20.64;100.00
2268;BME280;11052;43.338;25.502;2022-09-09T01:31:53;100497.00;;;20.57;100.00
2268;BME280;11052;43.338;25.502;2022-09-09T01:34:22;100497.22;;;20.54;100.00
2268;BME280;11052;43.338;25.502;2022-09-09T01:36:53;100496.41;;;20.27;100.00
2268;BME280;11052;43.338;25.502;2022-09-09T01:39:23;100493.44;;;20.19;100.00
2268;BME280;11052;43.338;25.502;2022-09-09T01:41:52;100488.59;;;20.13;100.00
2268;BME280;11052;43.338;25.502;2022-09-09T01:44:20;100495.50;;;20.01;100.00
2268;BME280;11052;43.338;25.502;2022-09-09T01:46:47;100486.03;;;19.98;100.00
2268;BME280;11052;43.338;25.502;2022-09-09T01:49:14;100501.91;;;19.84;100.00
2268;BME280;11052;43.338;25.502;2022-09-09T01:51:43;100484.16;;;19.47;100.00
2268;BME280;11052;43.338;25.502;2022-09-09T01:54:10;100485.13;;;19.31;100.00
2268;BME280;11052;43.338;25.502;2022-09-09T01:56:47;100488.91;;;19.13;100.00
2268;BME280;11052;43.338;25.502;2022-09-09T01:59:44;100486.81;;;19.18;100.00
2268;BME280;11052;43.338;25.502;2022-09-09T02:02:18;100480.44;;;19.22;100.00
2268;BME280;11052;43.338;25.502;2022-09-09T02:04:47;100489.63;;;19.29;100.00
2268;BME280;11052;43.338;25.502;2022-09-09T02:07:31;100489.06;;;19.24;100.00
2268;BME280;11052;43.338;25.502;2022-09-09T02:10:08;100476.28;;;19.06;100.00
2268;BME280;11052;43.338;25.502;2022-09-09T02:12:40;100483.59;;;19.01;100.00
2268;BME280;11052;43.338;25.502;2022-09-09T02:15:16;100489.59;;;19.03;100.00
2268;BME280;11052;43.338;25.502;2022-09-09T02:17:46;100490.66;;;19.27;100.00
2268;BME280;11052;43.338;25.502;2022-09-09T02:20:18;100485.41;;;19.27;100.00
2268;BME280;11052;43.338;25.502;2022-09-09T02:22:49;100477.81;;;19.22;100.00
2268;BME280;11052;43.338;25.502;2022-09-09T02:25:20;100472.28;;;19.13;100.00
2268;BME280;11052;43.338;25.502;2022-09-09T02:27:49;100483.97;;;18.94;100.00
2268;BME280;11052;43.338;25.502;2022-09-09T02:30:19;100490.44;;;18.89;100.00
2268;BME280;11052;43.338;25.502;2022-09-09T02:32:48;100499.44;;;18.85;100.00
2268;BME280;11052;43.338;25.502;2022-09-09T02:35:20;100484.63;;;18.84;100.00
2268;BME280;11052;43.338;25.502;2022-09-09T02:37:51;100497.66;;;18.85;100.00
2268;BME280;11052;43.338;25.502;2022-09-09T02:40:19;100491.75;;;18.82;100.00
2268;BME280;11052;43.338;25.502;2022-09-09T02:42:48;100479.84;;;18.62;100.00
2268;BME280;11052;43.338;25.502;2022-09-09T02:45:20;100482.69;;;18.57;100.00
2268;BME280;11052;43.338;25.502;2022-09-09T02:47:53;100483.81;;;18.53;100.00
2268;BME280;11052;43.338;25.502;2022-09-09T02:50:28;100471.63;;;18.38;100.00
2268;BME280;11052;43.338;25.502;2022-09-09T02:53:07;100466.84;;;18.45;100.00
2268;BME280;11052;43.338;25.502;2022-09-09T02:55:39;100461.13;;;18.52;100.00
2268;BME280;11052;43.338;25.502;2022-09-09T02:58:10;100465.41;;;18.69;100.00
2268;BME280;11052;43.338;25.502;2022-09-09T03:00:45;100461.38;;;18.92;100.00
2268;BME280;11052;43.338;25.502;2022-09-09T03:03:12;100457.16;;;19.16;100.00
2268;BME280;11052;43.338;25.502;2022-09-09T03:05:42;100468.59;;;19.29;100.00
2268;BME280;11052;43.338;25.502;2022-09-09T03:08:09;100470.84;;;19.36;100.00
2268;BME280;11052;43.338;25.502;2022-09-09T03:10:36;100466.13;;;19.55;100.00
2268;BME280;11052;43.338;25.502;2022-09-09T03:13:04;100469.25;;;19.74;100.00
2268;BME280;11052;43.338;25.502;2022-09-09T03:15:31;100459.50;;;19.89;100.00
2268;BME280;11052;43.338;25.502;2022-09-09T03:18:00;100463.28;;;19.85;100.00
2268;BME280;11052;43.338;25.502;2022-09-09T03:20:28;100462.53;;;19.83;100.00
2268;BME280;11052;43.338;25.502;2022-09-09T03:22:56;100466.41;;;19.77;100.00
2268;BME280;11052;43.338;25.502;2022-09-09T03:25:24;100467.25;;;19.78;100.00
2268;BME280;11052;43.338;25.502;2022-09-09T03:27:52;100475.06;;;19.79;100.00
2268;BME280;11052;43.338;25.502;2022-09-09T03:30:20;100469.59;;;19.82;100.00
2268;BME280;11052;43.338;25.502;2022-09-09T03:32:47;100473.16;;;19.81;100.00
2268;BME280;11052;43.338;25.502;2022-09-09T03:35:16;100477.47;;;19.82;100.00
2268;BME280;11052;43.338;25.502;2022-09-09T03:37:43;100476.97;;;19.90;100.00
2268;BME280;11052;43.338;25.502;2022-09-09T03:40:11;100473.81;;;19.97;100.00
2268;BME280;11052;43.338;25.502;2022-09-09T03:42:38;100474.97;;;19.93;100.00
2268;BME280;11052;43.338;25.502;2022-09-09T03:45:07;100478.22;;;19.84;100.00
2268;BME280;11052;43.338;25.502;2022-09-09T03:47:36;100472.72;;;19.75;100.00
2268;BME280;11052;43.338;25.502;2022-09-09T03:50:04;100473.13;;;19.69;100.00
2268;BME280;11052;43.338;25.502;2022-09-09T03:52:36;100480.28;;;19.67;100.00
2268;BME280;11052;43.338;25.502;2022-09-09T03:55:04;100480.56;;;19.62;100.00
2268;BME280;11052;43.338;25.502;2022-09-09T03:57:32;100481.16;;;19.53;100.00
2268;BME280;11052;43.338;25.502;2022-09-09T04:00:01;100477.41;;;19.43;100.00
2268;BME280;11052;43.338;25.502;2022-09-09T04:02:28;100477.25;;;19.17;100.00
2268;BME280;11052;43.338;25.502;2022-09-09T04:04:55;100477.44;;;19.14;100.00
2268;BME280;11052;43.338;25.502;2022-09-09T04:07:22;100485.31;;;19.28;100.00
2268;BME280;11052;43.338;25.502;2022-09-09T04:09:51;100480.78;;;19.45;100.00
2268;BME280;11052;43.338;25.502;2022-09-09T04:12:20;100485.84;;;19.48;100.00
2268;BME280;11052;43.338;25.502;2022-09-09T04:14:47;100488.84;;;19.56;100.00
2268;BME280;11052;43.338;25.502;2022-09-09T04:17:15;100491.00;;;19.63;100.00
2268;BME280;11052;43.338;25.502;2022-09-09T04:19:42;100492.94;;;19.74;100.00
2268;BME280;11052;43.338;25.502;2022-09-09T04:22:10;100502.41;;;19.77;100.00
2268;BME280;11052;43.338;25.502;2022-09-09T04:24:37;100496.16;;;19.92;100.00
2268;BME280;11052;43.338;25.502;2022-09-09T04:27:06;100502.34;;;20.04;100.00
2268;BME280;11052;43.338;25.502;2022-09-09T04:29:33;100501.00;;;20.11;100.00
2268;BME280;11052;43.338;25.502;2022-09-09T04:32:00;100499.13;;;20.13;100.00
2268;BME280;11052;43.338;25.502;2022-09-09T04:34:27;100495.34;;;20.17;100.00
2268;BME280;11052;43.338;25.502;2022-09-09T04:36:56;100498.81;;;20.17;100.00
2268;BME280;11052;43.338;25.502;2022-09-09T04:39:23;100501.13;;;20.22;100.00
2268;BME280;11052;43.338;25.502;2022-09-09T04:41:50;100500.28;;;20.21;100.00
2268;BME280;11052;43.338;25.502;2022-09-09T04:44:18;100504.22;;;20.28;100.00
2268;BME280;11052;43.338;25.502;2022-09-09T04:46:46;100499.84;;;20.42;100.00
2268;BME280;11052;43.338;25.502;2022-09-09T04:49:13;100502.81;;;20.63;100.00
2268;BME280;11052;43.338;25.502;2022-09-09T04:51:40;100504.66;;;20.86;100.00
2268;BME280;11052;43.338;25.502;2022-09-09T04:54:07;100500.94;;;21.14;100.00
2268;BME280;11052;43.338;25.502;2022-09-09T04:56:34;100499.97;;;21.40;100.00
2268;BME280;11052;43.338;25.502;2022-09-09T04:59:01;100502.53;;;21.77;100.00
2268;BME280;11052;43.338;25.502;2022-09-09T05:01:31;100501.59;;;22.26;100.00
2268;BME280;11052;43.338;25.502;2022-09-09T05:03:58;100504.75;;;22.64;100.00
2268;BME280;11052;43.338;25.502;2022-09-09T05:06:25;100500.84;;;23.03;100.00
2268;BME280;11052;43.338;25.502;2022-09-09T05:08:52;100507.41;;;23.42;99.48
2268;BME280;11052;43.338;25.502;2022-09-09T05:11:21;100496.41;;;23.69;100.00
2268;BME280;11052;43.338;25.502;2022-09-09T05:13:49;100499.78;;;24.03;88.07
2268;BME280;11052;43.338;25.502;2022-09-09T05:16:17;100506.47;;;24.39;90.75
2268;BME280;11052;43.338;25.502;2022-09-09T05:18:46;100499.22;;;24.62;85.04
2268;BME280;11052;43.338;25.502;2022-09-09T05:21:15;100507.31;;;24.91;84.87
2268;BME280;11052;43.338;25.502;2022-09-09T05:23:44;100500.88;;;25.24;79.25
2268;BME280;11052;43.338;25.502;2022-09-09T05:26:13;100499.28;;;25.52;76.86
2268;BME280;11052;43.338;25.502;2022-09-09T05:28:40;100499.34;;;25.81;73.70
2268;BME280;11052;43.338;25.502;2022-09-09T05:31:09;100498.06;;;26.04;67.05
2268;BME280;11052;43.338;25.502;2022-09-09T05:33:39;100487.69;;;26.21;66.13
2268;BME280;11052;43.338;25.502;2022-09-09T05:36:11;100487.97;;;26.47;64.03
2268;BME280;11052;43.338;25.502;2022-09-09T05:38:39;100486.28;;;26.45;58.58
2268;BME280;11052;43.338;25.502;2022-09-09T05:41:07;100482.50;;;26.48;60.68
2268;BME280;11052;43.338;25.502;2022-09-09T05:43:35;100479.06;;;26.75;60.04
2268;BME280;11052;43.338;25.502;2022-09-09T05:46:04;100465.97;;;26.54;56.35
2268;BME280;11052;43.338;25.502;2022-09-09T05:48:32;100472.81;;;26.66;55.76
2268;BME280;11052;43.338;25.502;2022-09-09T05:51:00;100467.63;;;26.65;54.67
2268;BME280;11052;43.338;25.502;2022-09-09T05:53:30;100463.00;;;26.67;55.57
2268;BME280;11052;43.338;25.502;2022-09-09T05:56:00;100464.28;;;26.90;54.40
2268;BME280;11052;43.338;25.502;2022-09-09T05:58:29;100466.63;;;27.30;56.70
2268;BME280;11052;43.338;25.502;2022-09-09T06:01:03;100464.63;;;27.60;54.35
2268;BME280;11052;43.338;25.502;2022-09-09T06:03:32;100463.03;;;27.67;52.77
2268;BME280;11052;43.338;25.502;2022-09-09T06:06:00;100458.66;;;28.01;53.85
2268;BME280;11052;43.338;25.502;2022-09-09T06:08:32;100460.41;;;28.11;48.37
2268;BME280;11052;43.338;25.502;2022-09-09T06:11:03;100462.63;;;27.97;50.84
2268;BME280;11052;43.338;25.502;2022-09-09T06:13:31;100465.94;;;28.17;51.00
2268;BME280;11052;43.338;25.502;2022-09-09T06:15:59;100463.78;;;28.38;50.30
2268;BME280;11052;43.338;25.502;2022-09-09T06:18:26;100460.56;;;28.53;50.00
2268;BME280;11052;43.338;25.502;2022-09-09T06:20:55;100456.16;;;28.44;48.73
2268;BME280;11052;43.338;25.502;2022-09-09T06:23:22;100468.09;;;28.31;49.44
2268;BME280;11052;43.338;25.502;2022-09-09T06:25:51;100463.28;;;28.17;48.66
2268;BME280;11052;43.338;25.502;2022-09-09T06:28:18;100454.28;;;28.36;49.38
2268;BME280;11052;43.338;25.502;2022-09-09T06:30:46;100470.38;;;28.26;48.65
2268;BME280;11052;43.338;25.502;2022-09-09T06:33:13;100464.75;;;28.63;49.38
2268;BME280;11052;43.338;25.502;2022-09-09T06:35:40;100479.41;;;28.85;46.58
2268;BME280;11052;43.338;25.502;2022-09-09T06:38:07;100473.97;;;29.03;47.14
2268;BME280;11052;43.338;25.502;2022-09-09T06:40:34;100469.47;;;29.03;47.05
2268;BME280;11052;43.338;25.502;2022-09-09T06:43:03;100468.28;;;28.98;48.39
2268;BME280;11052;43.338;25.502;2022-09-09T06:45:31;100465.19;;;29.19;45.36
2268;BME280;11052;43.338;25.502;2022-09-09T06:47:58;100466.56;;;29.31;46.35
2268;BME280;11052;43.338;25.502;2022-09-09T06:50:25;100466.28;;;29.50;46.84
2268;BME280;11052;43.338;25.502;2022-09-09T06:52:53;100463.81;;;29.73;45.31
2268;BME280;11052;43.338;25.502;2022-09-09T06:55:20;100472.38;;;30.01;45.50
2268;BME280;11052;43.338;25.502;2022-09-09T06:57:47;100462.78;;;30.39;45.82
2268;BME280;11052;43.338;25.502;2022-09-09T07:00:17;100467.63;;;30.52;44.80
2268;BME280;11052;43.338;25.502;2022-09-09T07:02:44;100457.22;;;30.57;43.84
2268;BME280;11052;43.338;25.502;2022-09-09T07:05:11;100456.41;;;30.48;44.37
2268;BME280;11052;43.338;25.502;2022-09-09T07:07:38;100458.25;;;30.64;45.99
2268;BME280;11052;43.338;25.502;2022-09-09T07:10:06;100451.84;;;30.81;43.79
2268;BME280;11052;43.338;25.502;2022-09-09T07:12:33;100451.22;;;30.63;44.25
2268;BME280;11052;43.338;25.502;2022-09-09T07:15:00;100448.72;;;30.53;43.52
2268;BME280;11052;43.338;25.502;2022-09-09T07:17:28;100443.59;;;30.91;45.61
2268;BME280;11052;43.338;25.502;2022-09-09T07:19:56;100445.19;;;30.53;43.22
2268;BME280;11052;43.338;25.502;2022-09-09T07:22:23;100448.03;;;30.68;44.16
2268;BME280;11052;43.338;25.502;2022-09-09T07:24:50;100451.53;;;30.68;43.44
2268;BME280;11052;43.338;25.502;2022-09-09T07:27:17;100450.72;;;31.15;46.51
2268;BME280;11052;43.338;25.502;2022-09-09T07:29:44;100453.34;;;31.46;43.63
2268;BME280;11052;43.338;25.502;2022-09-09T07:32:12;100457.09;;;31.37;42.16
2268;BME280;11052;43.338;25.502;2022-09-09T07:34:40;100463.69;;;31.26;44.05
2268;BME280;11052;43.338;25.502;2022-09-09T07:37:08;100459.50;;;31.54;44.57
2268;BME280;11052;43.338;25.502;2022-09-09T07:39:37;100457.00;;;31.53;41.71
2268;BME280;11052;43.338;25.502;2022-09-09T07:42:04;100453.28;;;31.54;44.34
2268;BME280;11052;43.338;25.502;2022-09-09T07:44:32;100462.16;;;31.54;42.85
2268;BME280;11052;43.338;25.502;2022-09-09T07:47:00;100464.59;;;31.41;44.33
2268;BME280;11052;43.338;25.502;2022-09-09T07:49:28;100469.03;;;31.57;43.36
2268;BME280;11052;43.338;25.502;2022-09-09T07:51:56;100471.53;;;31.58;44.29
2268;BME280;11052;43.338;25.502;2022-09-09T07:54:25;100464.00;;;31.85;43.39
2268;BME280;11052;43.338;25.502;2022-09-09T07:56:52;100465.53;;;32.02;42.35
2268;BME280;11052;43.338;25.502;2022-09-09T07:59:19;100460.66;;;31.83;42.09
2268;BME280;11052;43.338;25.502;2022-09-09T08:01:48;100461.06;;;32.09;42.28
2268;BME280;11052;43.338;25.502;2022-09-09T08:04:18;100463.22;;;32.14;41.25
2268;BME280;11052;43.338;25.502;2022-09-09T08:06:48;100463.38;;;32.50;42.65
2268;BME280;11052;43.338;25.502;2022-09-09T08:09:16;100470.53;;;32.57;42.61
2268;BME280;11052;43.338;25.502;2022-09-09T08:11:44;100462.66;;;32.71;42.03
2268;BME280;11052;43.338;25.502;2022-09-09T08:14:12;100461.13;;;32.76;40.81
2268;BME280;11052;43.338;25.502;2022-09-09T08:16:40;100456.66;;;32.83;41.59
2268;BME280;11052;43.338;25.502;2022-09-09T08:19:08;100443.22;;;32.83;41.51
2268;BME280;11052;43.338;25.502;2022-09-09T08:21:37;100431.00;;;32.81;39.76
2268;BME280;11052;43.338;25.502;2022-09-09T08:24:06;100435.19;;;32.83;40.05
2268;BME280;11052;43.338;25.502;2022-09-09T08:26:36;100430.56;;;32.77;39.96
2268;BME280;11052;43.338;25.502;2022-09-09T08:29:05;100423.34;;;32.78;41.38
2268;BME280;11052;43.338;25.502;2022-09-09T08:31:34;100421.50;;;33.00;39.79
2268;BME280;11052;43.338;25.502;2022-09-09T08:34:03;100422.97;;;32.81;39.50
2268;BME280;11052;43.338;25.502;2022-09-09T08:36:33;100417.34;;;32.97;40.63
2268;BME280;11052;43.338;25.502;2022-09-09T08:39:01;100406.66;;;33.04;40.02
2268;BME280;11052;43.338;25.502;2022-09-09T08:41:55;100404.13;;;33.17;39.20
2268;BME280;11052;43.338;25.502;2022-09-09T08:44:35;100404.81;;;33.40;41.08
2268;BME280;11052;43.338;25.502;2022-09-09T08:47:13;100407.50;;;33.40;40.60
2268;BME280;11052;43.338;25.502;2022-09-09T08:49:58;100406.44;;;33.56;39.86
2268;BME280;11052;43.338;25.502;2022-09-09T08:52:29;100402.97;;;33.62;37.58
2268;BME280;11052;43.338;25.502;2022-09-09T08:55:02;100396.88;;;33.32;38.79
2268;BME280;11052;43.338;25.502;2022-09-09T08:57:32;100390.75;;;33.60;40.79
2268;BME280;11052;43.338;25.502;2022-09-09T09:00:01;100397.00;;;33.67;40.68
2268;BME280;11052;43.338;25.502;2022-09-09T09:02:34;100390.63;;;33.96;38.57
2268;BME280;11052;43.338;25.502;2022-09-09T09:05:15;100389.78;;;33.95;39.08
2268;BME280;11052;43.338;25.502;2022-09-09T09:07:56;100388.25;;;33.58;38.12
2268;BME280;11052;43.338;25.502;2022-09-09T09:10:39;100380.38;;;33.57;38.58
2268;BME280;11052;43.338;25.502;2022-09-09T09:13:15;100389.84;;;33.52;39.00
2268;BME280;11052;43.338;25.502;2022-09-09T09:15:44;100385.38;;;33.60;39.28
2268;BME280;11052;43.338;25.502;2022-09-09T09:18:15;100391.31;;;33.76;40.13
2268;BME280;11052;43.338;25.502;2022-09-09T09:20:50;100385.88;;;33.98;39.27
2268;BME280;11052;43.338;25.502;2022-09-09T09:23:23;100378.34;;;34.14;40.07
2268;BME280;11052;43.338;25.502;2022-09-09T09:25:56;100376.00;;;34.33;39.24
2268;BME280;11052;43.338;25.502;2022-09-09T09:28:29;100378.81;;;34.59;39.79
2268;BME280;11052;43.338;25.502;2022-09-09T09:31:01;100380.28;;;34.68;40.29
2268;BME280;11052;43.338;25.502;2022-09-09T09:33:35;100363.72;;;34.65;37.30
2268;BME280;11052;43.338;25.502;2022-09-09T09:36:03;100364.97;;;34.62;37.81
2268;BME280;11052;43.338;25.502;2022-09-09T09:38:34;100362.28;;;34.75;39.15
2268;BME280;11052;43.338;25.502;2022-09-09T09:41:02;100349.81;;;34.68;38.42
2268;BME280;11052;43.338;25.502;2022-09-09T09:43:32;100350.88;;;34.73;39.02
2268;BME280;11052;43.338;25.502;2022-09-09T09:45:59;100340.91;;;34.61;38.00
2268;BME280;11052;43.338;25.502;2022-09-09T09:48:27;100346.91;;;34.56;38.02
2268;BME280;11052;43.338;25.502;2022-09-09T09:50:56;100341.00;;;34.80;39.59
2268;BME280;11052;43.338;25.502;2022-09-09T09:53:26;100342.81;;;34.73;37.99
2268;BME280;11052;43.338;25.502;2022-09-09T09:55:57;100342.97;;;34.52;38.81
2268;BME280;11052;43.338;25.502;2022-09-09T09:58:26;100352.53;;;34.61;38.59
2268;BME280;11052;43.338;25.502;2022-09-09T10:00:57;100356.56;;;34.92;38.44
2268;BME280;11052;43.338;25.502;2022-09-09T10:03:27;100356.59;;;34.44;38.86
2268;BME280;11052;43.338;25.502;2022-09-09T10:05:55;100341.94;;;34.53;37.39
2268;BME280;11052;43.338;25.502;2022-09-09T10:08:23;100343.50;;;34.89;39.61
2268;BME280;11052;43.338;25.502;2022-09-09T10:11:24;100333.91;;;34.79;36.02
2268;BME280;11052;43.338;25.502;2022-09-09T10:14:00;100339.78;;;34.96;39.11
2268;BME280;11052;43.338;25.502;2022-09-09T10:16:44;100339.63;;;35.17;38.02
2268;BME280;11052;43.338;25.502;2022-09-09T10:19:16;100339.28;;;35.34;37.97
2268;BME280;11052;43.338;25.502;2022-09-09T10:21:57;100335.31;;;35.63;38.38
2268;BME280;11052;43.338;25.502;2022-09-09T10:24:43;100343.41;;;35.43;37.13
2268;BME280;11052;43.338;25.502;2022-09-09T10:27:19;100345.09;;;35.51;37.66
2268;BME280;11052;43.338;25.502;2022-09-09T10:30:05;100335.94;;;35.38;35.98
2268;BME280;11052;43.338;25.502;2022-09-09T10:32:41;100335.69;;;35.20;36.79
2268;BME280;11052;43.338;25.502;2022-09-09T10:35:27;100342.34;;;35.70;39.47
2268;BME280;11052;43.338;25.502;2022-09-09T10:38:10;100329.28;;;35.74;35.12
2268;BME280;11052;43.338;25.502;2022-09-09T10:43:38;100328.22;;;35.75;36.23
2268;BME280;11052;43.338;25.502;2022-09-09T10:46:16;100327.41;;;35.61;35.23
2268;BME280;11052;43.338;25.502;2022-09-09T10:48:59;100315.78;;;35.61;36.55
2268;BME280;11052;43.338;25.502;2022-09-09T10:51:35;100310.19;;;35.89;36.17
2268;BME280;11052;43.338;25.502;2022-09-09T10:54:22;100312.00;;;36.15;39.09
2268;BME280;11052;43.338;25.502;2022-09-09T10:56:55;100314.91;;;36.13;37.08
2268;BME280;11052;43.338;25.502;2022-09-09T10:59:26;100320.91;;;36.22;36.01
2268;BME280;11052;43.338;25.502;2022-09-09T11:01:57;100312.81;;;36.28;36.00
2268;BME280;11052;43.338;25.502;2022-09-09T11:04:31;100312.59;;;36.23;36.12
2268;BME280;11052;43.338;25.502;2022-09-09T11:07:05;100314.47;;;36.23;36.13
2268;BME280;11052;43.338;25.502;2022-09-09T11:09:38;100306.78;;;36.33;35.47
2268;BME280;11052;43.338;25.502;2022-09-09T11:12:10;100308.44;;;36.34;36.55
2268;BME280;11052;43.338;25.502;2022-09-09T11:14:43;100310.59;;;36.57;35.00
2268;BME280;11052;43.338;25.502;2022-09-09T11:17:15;100307.31;;;36.48;35.30
2268;BME280;11052;43.338;25.502;2022-09-09T11:19:45;100307.19;;;36.30;34.47
2268;BME280;11052;43.338;25.502;2022-09-09T11:22:18;100306.41;;;36.09;35.60
2268;BME280;11052;43.338;25.502;2022-09-09T11:24:52;100298.69;;;36.20;35.54
2268;BME280;11052;43.338;25.502;2022-09-09T11:27:24;100292.28;;;36.07;34.49
2268;BME280;11052;43.338;25.502;2022-09-09T11:30:11;100292.53;;;35.99;34.55
2268;BME280;11052;43.338;25.502;2022-09-09T11:33:00;100295.59;;;36.09;35.28
2268;BME280;11052;43.338;25.502;2022-09-09T11:35:43;100293.56;;;35.92;35.91
2268;BME280;11052;43.338;25.502;2022-09-09T11:38:26;100289.84;;;35.73;36.11
2268;BME280;11052;43.338;25.502;2022-09-09T11:40:58;100288.00;;;35.54;35.66
2268;BME280;11052;43.338;25.502;2022-09-09T11:43:29;100293.00;;;35.43;36.16
2268;BME280;11052;43.338;25.502;2022-09-09T11:45:59;100283.03;;;35.57;36.33
2268;BME280;11052;43.338;25.502;2022-09-09T11:48:35;100284.72;;;35.52;37.26
2268;BME280;11052;43.338;25.502;2022-09-09T11:51:06;100276.59;;;35.25;35.49
2268;BME280;11052;43.338;25.502;2022-09-09T11:53:34;100274.72;;;34.99;35.84
2268;BME280;11052;43.338;25.502;2022-09-09T11:56:08;100274.94;;;35.04;38.19
2268;BME280;11052;43.338;25.502;2022-09-09T11:58:42;100268.50;;;34.99;38.02
2268;BME280;11052;43.338;25.502;2022-09-09T12:01:16;100270.97;;;34.94;37.34
2268;BME280;11052;43.338;25.502;2022-09-09T12:04:00;100269.09;;;34.88;37.51
2268;BME280;11052;43.338;25.502;2022-09-09T12:06:43;100260.94;;;34.68;36.80
2268;BME280;11052;43.338;25.502;2022-09-09T12:09:19;100256.81;;;34.59;37.03
2268;BME280;11052;43.338;25.502;2022-09-09T12:11:48;100254.06;;;34.39;38.12
2268;BME280;11052;43.338;25.502;2022-09-09T12:14:23;100249.00;;;34.23;37.64
2268;BME280;11052;43.338;25.502;2022-09-09T12:17:10;100244.81;;;34.13;38.70
2268;BME280;11052;43.338;25.502;2022-09-09T12:19:37;100241.72;;;34.16;39.24
2268;BME280;11052;43.338;25.502;2022-09-09T12:22:10;100235.44;;;34.03;38.31
2268;BME280;11052;43.338;25.502;2022-09-09T12:24:48;100229.03;;;34.04;37.29
2268;BME280;11052;43.338;25.502;2022-09-09T12:27:23;100237.59;;;34.20;39.69
2268;BME280;11052;43.338;25.502;2022-09-09T12:29:57;100231.50;;;34.46;38.96
2268;BME280;11052;43.338;25.502;2022-09-09T12:32:27;100223.88;;;34.70;39.88
2268;BME280;11052;43.338;25.502;2022-09-09T12:34:58;100216.25;;;34.93;36.84
2268;BME280;11052;43.338;25.502;2022-09-09T12:37:32;100212.75;;;35.32;38.14
2268;BME280;11052;43.338;25.502;2022-09-09T12:40:02;100209.22;;;35.38;36.02
2268;BME280;11052;43.338;25.502;2022-09-09T12:42:30;100220.41;;;35.48;38.80
2268;BME280;11052;43.338;25.502;2022-09-09T12:45:00;100224.56;;;35.44;37.22
2268;BME280;11052;43.338;25.502;2022-09-09T12:47:37;100220.63;;;35.34;37.55
2268;BME280;11052;43.338;25.502;2022-09-09T12:50:16;100211.69;;;35.07;38.27
2268;BME280;11052;43.338;25.502;2022-09-09T12:52:47;100205.91;;;35.03;37.29
2268;BME280;11052;43.338;25.502;2022-09-09T12:55:18;100209.34;;;34.71;36.52
2268;BME280;11052;43.338;25.502;2022-09-09T12:57:48;100203.16;;;34.64;37.07
2268;BME280;11052;43.338;25.502;2022-09-09T13:00:18;100210.00;;;34.66;36.63
2268;BME280;11052;43.338;25.502;2022-09-09T13:02:50;100208.75;;;34.56;38.48
2268;BME280;11052;43.338;25.502;2022-09-09T13:05:21;100204.75;;;34.38;38.36
2268;BME280;11052;43.338;25.502;2022-09-09T13:07:50;100210.47;;;34.22;38.14
2268;BME280;11052;43.338;25.502;2022-09-09T13:10:24;100207.78;;;34.22;38.23
2268;BME280;11052;43.338;25.502;2022-09-09T13:12:53;100206.13;;;34.21;38.94